sensor_id;sensor_type;location;lat;lon;timestamp;temperature;humidity
19945;DHT22;10134;50.952;6.930;2023-11-19T00:00:41;10.40;99.90
19945;DHT22;10134;50.952;6.930;2023-11-19T00:03:21;10.40;99.90
19945;DHT22;10134;50.952;6.930;2023-11-19T00:05:50;10.40;99.90
19945;DHT22;10134;50.952;6.930;2023-11-19T00:08:18;10.40;99.90
19945;DHT22;10134;50.952;6.930;2023-11-19T00:10:47;10.40;99.90
19945;DHT22;10134;50.952;6.930;2023-11-19T00:13:16;10.40;99.90
19945;DHT22;10134;50.952;6.930;2023-11-19T00:15:45;10.50;99.90
19945;DHT22;10134;50.952;6.930;2023-11-19T00:18:14;10.50;99.90
19945;DHT22;10134;50.952;6.930;2023-11-19T00:20:45;10.50;99.90
19945;DHT22;10134;50.952;6.930;2023-11-19T00:23:14;10.50;99.90
19945;DHT22;10134;50.952;6.930;2023-11-19T00:25:42;10.50;99.90
19945;DHT22;10134;50.952;6.930;2023-11-19T00:28:11;10.50;99.90
19945;DHT22;10134;50.952;6.930;2023-11-19T00:30:40;10.50;99.90
19945;DHT22;10134;50.952;6.930;2023-11-19T00:33:09;10.50;99.90
19945;DHT22;10134;50.952;6.930;2023-11-19T00:35:38;10.50;99.90
19945;DHT22;10134;50.952;6.930;2023-11-19T00:38:08;10.60;99.90
19945;DHT22;10134;50.952;6.930;2023-11-19T00:40:37;10.60;99.90
19945;DHT22;10134;50.952;6.930;2023-11-19T00:43:06;10.60;99.90
19945;DHT22;10134;50.952;6.930;2023-11-19T00:45:34;10.60;99.90
19945;DHT22;10134;50.952;6.930;2023-11-19T00:48:04;10.60;99.90
19945;DHT22;10134;50.952;6.930;2023-11-19T00:50:33;10.60;99.90
19945;DHT22;10134;50.952;6.930;2023-11-19T00:53:05;10.70;99.90
19945;DHT22;10134;50.952;6.930;2023-11-19T00:55:35;10.70;99.90
19945;DHT22;10134;50.952;6.930;2023-11-19T00:58:13;10.70;99.90
19945;DHT22;10134;50.952;6.930;2023-11-19T01:00:42;10.70;99.90
19945;DHT22;10134;50.952;6.930;2023-11-19T01:03:12;10.70;99.90
19945;DHT22;10134;50.952;6.930;2023-11-19T01:05:42;10.70;99.90
19945;DHT22;10134;50.952;6.930;2023-11-19T01:08:11;10.70;99.90
19945;DHT22;10134;50.952;6.930;2023-11-19T01:10:41;10.70;99.90
19945;DHT22;10134;50.952;6.930;2023-11-19T01:13:10;10.80;99.90
19945;DHT22;10134;50.952;6.930;2023-11-19T01:15:38;10.80;99.90
19945;DHT22;10134;50.952;6.930;2023-11-19T01:18:08;10.80;99.90
19945;DHT22;10134;50.952;6.930;2023-11-19T01:20:38;10.80;99.90
19945;DHT22;10134;50.952;6.930;2023-11-19T01:23:06;10.80;99.90
19945;DHT22;10134;50.952;6.930;2023-11-19T01:25:35;10.80;99.90
19945;DHT22;10134;50.952;6.930;2023-11-19T01:28:07;10.90;99.90
19945;DHT22;10134;50.952;6.930;2023-11-19T01:30:35;10.90;99.90
19945;DHT22;10134;50.952;6.930;2023-11-19T01:33:04;10.90;99.90
19945;DHT22;10134;50.952;6.930;2023-11-19T01:35:34;10.90;99.90
19945;DHT22;10134;50.952;6.930;2023-11-19T01:38:03;10.90;99.90
19945;DHT22;10134;50.952;6.930;2023-11-19T01:40:32;11.00;99.90
19945;DHT22;10134;50.952;6.930;2023-11-19T01:43:00;11.00;99.90
19945;DHT22;10134;50.952;6.930;2023-11-19T01:45:31;11.00;99.90
19945;DHT22;10134;50.952;6.930;2023-11-19T01:48:03;11.10;99.90
19945;DHT22;10134;50.952;6.930;2023-11-19T01:50:33;11.10;99.90
19945;DHT22;10134;50.952;6.930;2023-11-19T01:53:03;11.10;99.90
19945;DHT22;10134;50.952;6.930;2023-11-19T01:55:31;11.20;99.90
19945;DHT22;10134;50.952;6.930;2023-11-19T01:58:01;11.20;99.90
19945;DHT22;10134;50.952;6.930;2023-11-19T02:00:32;11.20;99.90
19945;DHT22;10134;50.952;6.930;2023-11-19T02:03:01;11.30;99.90
19945;DHT22;10134;50.952;6.930;2023-11-19T02:05:31;11.30;99.90
19945;DHT22;10134;50.952;6.930;2023-11-19T02:08:00;11.40;99.90
19945;DHT22;10134;50.952;6.930;2023-11-19T02:10:30;11.40;99.90
19945;DHT22;10134;50.952;6.930;2023-11-19T02:13:01;11.40;99.90
19945;DHT22;10134;50.952;6.930;2023-11-19T02:15:34;11.50;99.90
19945;DHT22;10134;50.952;6.930;2023-11-19T02:18:19;11.50;99.90
19945;DHT22;10134;50.952;6.930;2023-11-19T02:20:49;11.60;99.90
19945;DHT22;10134;50.952;6.930;2023-11-19T02:23:20;11.60;99.90
19945;DHT22;10134;50.952;6.930;2023-11-19T02:26:03;11.60;99.90
19945;DHT22;10134;50.952;6.930;2023-11-19T02:28:37;11.70;99.90
19945;DHT22;10134;50.952;6.930;2023-11-19T02:31:06;11.70;99.90
19945;DHT22;10134;50.952;6.930;2023-11-19T02:33:37;11.70;99.90
19945;DHT22;10134;50.952;6.930;2023-11-19T02:36:07;11.70;99.90
19945;DHT22;10134;50.952;6.930;2023-11-19T02:38:36;11.70;99.90
19945;DHT22;10134;50.952;6.930;2023-11-19T02:41:06;11.80;99.90
19945;DHT22;10134;50.952;6.930;2023-11-19T02:43:37;11.80;99.90
19945;DHT22;10134;50.952;6.930;2023-11-19T02:46:06;11.80;99.90
19945;DHT22;10134;50.952;6.930;2023-11-19T02:48:38;11.80;99.90
19945;DHT22;10134;50.952;6.930;2023-11-19T02:51:07;11.80;99.90
19945;DHT22;10134;50.952;6.930;2023-11-19T02:53:38;11.80;99.90
19945;DHT22;10134;50.952;6.930;2023-11-19T02:56:08;11.80;99.90
19945;DHT22;10134;50.952;6.930;2023-11-19T02:58:48;11.80;99.90
19945;DHT22;10134;50.952;6.930;2023-11-19T03:01:22;11.80;99.90
19945;DHT22;10134;50.952;6.930;2023-11-19T03:03:57;11.80;99.90
19945;DHT22;10134;50.952;6.930;2023-11-19T03:06:27;11.80;99.90
19945;DHT22;10134;50.952;6.930;2023-11-19T03:08:56;11.70;99.90
19945;DHT22;10134;50.952;6.930;2023-11-19T03:11:24;11.70;99.90
19945;DHT22;10134;50.952;6.930;2023-11-19T03:13:54;11.70;99.90
19945;DHT22;10134;50.952;6.930;2023-11-19T03:16:23;11.70;99.90
19945;DHT22;10134;50.952;6.930;2023-11-19T03:18:52;11.70;99.90
19945;DHT22;10134;50.952;6.930;2023-11-19T03:21:27;11.70;99.90
19945;DHT22;10134;50.952;6.930;2023-11-19T03:23:57;11.70;99.90
19945;DHT22;10134;50.952;6.930;2023-11-19T03:26:27;11.70;99.90
19945;DHT22;10134;50.952;6.930;2023-11-19T03:28:57;11.70;99.90
19945;DHT22;10134;50.952;6.930;2023-11-19T03:31:25;11.70;99.90
19945;DHT22;10134;50.952;6.930;2023-11-19T03:33:54;11.80;99.90
19945;DHT22;10134;50.952;6.930;2023-11-19T03:36:31;11.70;99.90
19945;DHT22;10134;50.952;6.930;2023-11-19T03:39:01;11.70;99.90
19945;DHT22;10134;50.952;6.930;2023-11-19T03:41:30;11.80;99.90
19945;DHT22;10134;50.952;6.930;2023-11-19T03:44:20;11.80;99.90
19945;DHT22;10134;50.952;6.930;2023-11-19T03:46:49;11.80;99.90
19945;DHT22;10134;50.952;6.930;2023-11-19T03:49:18;11.80;99.90
19945;DHT22;10134;50.952;6.930;2023-11-19T03:51:46;11.80;99.90
19945;DHT22;10134;50.952;6.930;2023-11-19T03:54:15;11.80;99.90
19945;DHT22;10134;50.952;6.930;2023-11-19T03:56:44;11.80;99.90
19945;DHT22;10134;50.952;6.930;2023-11-19T03:59:13;11.90;99.90
19945;DHT22;10134;50.952;6.930;2023-11-19T04:01:43;11.90;99.90
19945;DHT22;10134;50.952;6.930;2023-11-19T04:04:12;11.90;99.90
19945;DHT22;10134;50.952;6.930;2023-11-19T04:06:42;11.80;99.90
19945;DHT22;10134;50.952;6.930;2023-11-19T04:09:10;11.80;99.90
19945;DHT22;10134;50.952;6.930;2023-11-19T04:11:39;11.90;99.90
19945;DHT22;10134;50.952;6.930;2023-11-19T04:14:07;11.90;99.90
19945;DHT22;10134;50.952;6.930;2023-11-19T04:16:37;11.90;99.90
19945;DHT22;10134;50.952;6.930;2023-11-19T04:19:07;11.90;99.90
19945;DHT22;10134;50.952;6.930;2023-11-19T04:21:36;11.90;99.90
19945;DHT22;10134;50.952;6.930;2023-11-19T04:24:05;11.90;99.90
19945;DHT22;10134;50.952;6.930;2023-11-19T04:26:34;11.90;99.90
19945;DHT22;10134;50.952;6.930;2023-11-19T04:29:04;11.90;99.90
19945;DHT22;10134;50.952;6.930;2023-11-19T04:31:33;11.90;99.90
19945;DHT22;10134;50.952;6.930;2023-11-19T04:34:02;11.90;99.90
19945;DHT22;10134;50.952;6.930;2023-11-19T04:36:32;11.90;99.90
19945;DHT22;10134;50.952;6.930;2023-11-19T04:39:01;12.00;99.90
19945;DHT22;10134;50.952;6.930;2023-11-19T04:41:30;11.90;99.90
19945;DHT22;10134;50.952;6.930;2023-11-19T04:43:59;12.00;99.90
19945;DHT22;10134;50.952;6.930;2023-11-19T04:46:27;12.00;99.90
19945;DHT22;10134;50.952;6.930;2023-11-19T04:48:56;12.00;99.90
19945;DHT22;10134;50.952;6.930;2023-11-19T04:51:25;12.00;99.90
19945;DHT22;10134;50.952;6.930;2023-11-19T04:53:55;12.00;99.90
19945;DHT22;10134;50.952;6.930;2023-11-19T04:56:24;12.00;99.90
19945;DHT22;10134;50.952;6.930;2023-11-19T04:58:53;12.00;99.90
19945;DHT22;10134;50.952;6.930;2023-11-19T05:01:22;12.00;99.90
19945;DHT22;10134;50.952;6.930;2023-11-19T05:03:51;12.00;99.90
19945;DHT22;10134;50.952;6.930;2023-11-19T05:06:19;12.10;99.90
19945;DHT22;10134;50.952;6.930;2023-11-19T05:08:48;12.00;99.90
19945;DHT22;10134;50.952;6.930;2023-11-19T05:11:18;12.00;99.90
19945;DHT22;10134;50.952;6.930;2023-11-19T05:13:47;12.00;99.90
19945;DHT22;10134;50.952;6.930;2023-11-19T05:16:16;12.00;99.90
19945;DHT22;10134;50.952;6.930;2023-11-19T05:18:45;12.00;99.90
19945;DHT22;10134;50.952;6.930;2023-11-19T05:21:13;11.90;99.90
19945;DHT22;10134;50.952;6.930;2023-11-19T05:23:42;11.90;99.90
19945;DHT22;10134;50.952;6.930;2023-11-19T05:26:18;11.90;99.90
19945;DHT22;10134;50.952;6.930;2023-11-19T05:28:48;11.90;99.90
19945;DHT22;10134;50.952;6.930;2023-11-19T05:31:17;11.90;99.90
19945;DHT22;10134;50.952;6.930;2023-11-19T05:33:46;11.80;99.90
19945;DHT22;10134;50.952;6.930;2023-11-19T05:36:15;11.80;99.90
19945;DHT22;10134;50.952;6.930;2023-11-19T05:38:44;11.80;99.90
19945;DHT22;10134;50.952;6.930;2023-11-19T05:41:13;11.80;99.90
19945;DHT22;10134;50.952;6.930;2023-11-19T05:43:43;11.80;99.90
19945;DHT22;10134;50.952;6.930;2023-11-19T05:46:12;11.80;99.90
19945;DHT22;10134;50.952;6.930;2023-11-19T05:48:43;11.80;99.90
19945;DHT22;10134;50.952;6.930;2023-11-19T05:51:14;11.80;99.90
19945;DHT22;10134;50.952;6.930;2023-11-19T05:53:43;11.70;99.90
19945;DHT22;10134;50.952;6.930;2023-11-19T05:56:13;11.70;99.90
19945;DHT22;10134;50.952;6.930;2023-11-19T05:58:44;11.80;99.90
19945;DHT22;10134;50.952;6.930;2023-11-19T06:01:13;11.80;99.90
19945;DHT22;10134;50.952;6.930;2023-11-19T06:03:42;11.70;99.90
19945;DHT22;10134;50.952;6.930;2023-11-19T06:06:15;11.70;99.90
19945;DHT22;10134;50.952;6.930;2023-11-19T06:08:43;11.70;99.90
19945;DHT22;10134;50.952;6.930;2023-11-19T06:11:12;11.70;99.90
19945;DHT22;10134;50.952;6.930;2023-11-19T06:13:46;11.70;99.90
19945;DHT22;10134;50.952;6.930;2023-11-19T06:16:17;11.70;99.90
19945;DHT22;10134;50.952;6.930;2023-11-19T06:18:46;11.70;99.90
19945;DHT22;10134;50.952;6.930;2023-11-19T06:21:15;11.70;99.90
19945;DHT22;10134;50.952;6.930;2023-11-19T06:23:44;11.70;99.90
19945;DHT22;10134;50.952;6.930;2023-11-19T06:26:12;11.70;99.90
19945;DHT22;10134;50.952;6.930;2023-11-19T06:28:41;11.70;99.90
19945;DHT22;10134;50.952;6.930;2023-11-19T06:31:11;11.70;99.90
19945;DHT22;10134;50.952;6.930;2023-11-19T06:33:43;11.60;99.90
19945;DHT22;10134;50.952;6.930;2023-11-19T06:36:14;11.70;99.90
19945;DHT22;10134;50.952;6.930;2023-11-19T06:38:43;11.60;99.90
19945;DHT22;10134;50.952;6.930;2023-11-19T06:41:12;11.60;99.90
19945;DHT22;10134;50.952;6.930;2023-11-19T06:43:40;11.60;99.90
19945;DHT22;10134;50.952;6.930;2023-11-19T06:46:17;11.60;99.90
19945;DHT22;10134;50.952;6.930;2023-11-19T06:48:46;11.60;99.90
19945;DHT22;10134;50.952;6.930;2023-11-19T06:51:15;11.60;99.90
19945;DHT22;10134;50.952;6.930;2023-11-19T06:53:44;11.60;99.90
19945;DHT22;10134;50.952;6.930;2023-11-19T06:56:20;11.60;99.90
19945;DHT22;10134;50.952;6.930;2023-11-19T06:58:49;11.60;99.90
19945;DHT22;10134;50.952;6.930;2023-11-19T07:01:19;11.60;99.90
19945;DHT22;10134;50.952;6.930;2023-11-19T07:03:48;11.60;99.90
19945;DHT22;10134;50.952;6.930;2023-11-19T07:06:18;11.60;99.90
19945;DHT22;10134;50.952;6.930;2023-11-19T07:09:02;11.60;99.90
19945;DHT22;10134;50.952;6.930;2023-11-19T07:11:37;11.60;99.90
19945;DHT22;10134;50.952;6.930;2023-11-19T07:14:06;11.60;99.90
19945;DHT22;10134;50.952;6.930;2023-11-19T07:16:36;11.60;99.90
19945;DHT22;10134;50.952;6.930;2023-11-19T07:19:06;11.60;99.90
19945;DHT22;10134;50.952;6.930;2023-11-19T07:21:35;11.60;99.90
19945;DHT22;10134;50.952;6.930;2023-11-19T07:24:07;11.60;99.90
19945;DHT22;10134;50.952;6.930;2023-11-19T07:26:36;11.60;99.90
19945;DHT22;10134;50.952;6.930;2023-11-19T07:29:05;11.60;99.90
19945;DHT22;10134;50.952;6.930;2023-11-19T07:31:36;11.60;99.90
19945;DHT22;10134;50.952;6.930;2023-11-19T07:34:05;11.60;99.90
19945;DHT22;10134;50.952;6.930;2023-11-19T07:36:34;11.60;99.90
19945;DHT22;10134;50.952;6.930;2023-11-19T07:39:03;11.60;99.90
19945;DHT22;10134;50.952;6.930;2023-11-19T07:41:32;11.60;99.90
19945;DHT22;10134;50.952;6.930;2023-11-19T07:44:05;11.60;99.90
19945;DHT22;10134;50.952;6.930;2023-11-19T07:46:36;11.60;99.90
19945;DHT22;10134;50.952;6.930;2023-11-19T07:49:05;11.60;99.90
19945;DHT22;10134;50.952;6.930;2023-11-19T07:51:33;11.60;99.90
19945;DHT22;10134;50.952;6.930;2023-11-19T07:54:02;11.60;99.90
19945;DHT22;10134;50.952;6.930;2023-11-19T07:56:32;11.60;99.90
19945;DHT22;10134;50.952;6.930;2023-11-19T07:59:01;11.60;99.90
19945;DHT22;10134;50.952;6.930;2023-11-19T08:01:30;11.60;99.90
19945;DHT22;10134;50.952;6.930;2023-11-19T08:04:00;11.60;99.90
19945;DHT22;10134;50.952;6.930;2023-11-19T08:06:30;11.60;99.90
19945;DHT22;10134;50.952;6.930;2023-11-19T08:08:59;11.60;99.90
19945;DHT22;10134;50.952;6.930;2023-11-19T08:11:27;11.60;99.90
19945;DHT22;10134;50.952;6.930;2023-11-19T08:13:56;11.60;99.90
19945;DHT22;10134;50.952;6.930;2023-11-19T08:16:25;11.60;99.90
19945;DHT22;10134;50.952;6.930;2023-11-19T08:18:54;11.60;99.90
19945;DHT22;10134;50.952;6.930;2023-11-19T08:21:23;11.60;99.90
19945;DHT22;10134;50.952;6.930;2023-11-19T08:23:54;11.70;99.90
19945;DHT22;10134;50.952;6.930;2023-11-19T08:26:23;11.70;99.90
19945;DHT22;10134;50.952;6.930;2023-11-19T08:28:52;11.70;99.90
19945;DHT22;10134;50.952;6.930;2023-11-19T08:31:20;11.70;99.90
19945;DHT22;10134;50.952;6.930;2023-11-19T08:33:49;11.70;99.90
19945;DHT22;10134;50.952;6.930;2023-11-19T08:36:17;11.80;99.90
19945;DHT22;10134;50.952;6.930;2023-11-19T08:38:47;11.80;99.90
19945;DHT22;10134;50.952;6.930;2023-11-19T08:41:16;11.90;99.90
19945;DHT22;10134;50.952;6.930;2023-11-19T08:43:45;11.90;99.90
19945;DHT22;10134;50.952;6.930;2023-11-19T08:46:14;11.90;99.90
19945;DHT22;10134;50.952;6.930;2023-11-19T08:48:43;11.90;99.90
19945;DHT22;10134;50.952;6.930;2023-11-19T08:51:11;12.00;99.90
19945;DHT22;10134;50.952;6.930;2023-11-19T08:53:40;12.00;99.90
19945;DHT22;10134;50.952;6.930;2023-11-19T08:56:10;12.00;99.90
19945;DHT22;10134;50.952;6.930;2023-11-19T08:58:41;12.00;99.90
19945;DHT22;10134;50.952;6.930;2023-11-19T09:01:10;12.10;99.90
19945;DHT22;10134;50.952;6.930;2023-11-19T09:03:39;12.10;99.90
19945;DHT22;10134;50.952;6.930;2023-11-19T09:06:08;12.10;99.90
19945;DHT22;10134;50.952;6.930;2023-11-19T09:08:37;12.10;99.90
19945;DHT22;10134;50.952;6.930;2023-11-19T09:11:10;12.20;99.90
19945;DHT22;10134;50.952;6.930;2023-11-19T09:13:42;12.20;99.90
19945;DHT22;10134;50.952;6.930;2023-11-19T09:16:12;12.20;99.90
19945;DHT22;10134;50.952;6.930;2023-11-19T09:18:41;12.30;99.90
19945;DHT22;10134;50.952;6.930;2023-11-19T09:21:10;12.30;99.90
19945;DHT22;10134;50.952;6.930;2023-11-19T09:23:39;12.40;99.90
19945;DHT22;10134;50.952;6.930;2023-11-19T09:26:10;12.40;99.90
19945;DHT22;10134;50.952;6.930;2023-11-19T09:28:39;12.50;99.90
19945;DHT22;10134;50.952;6.930;2023-11-19T09:31:14;12.50;99.90
19945;DHT22;10134;50.952;6.930;2023-11-19T09:33:43;12.60;99.90
19945;DHT22;10134;50.952;6.930;2023-11-19T09:36:12;12.60;99.90
19945;DHT22;10134;50.952;6.930;2023-11-19T09:38:42;12.60;99.90
19945;DHT22;10134;50.952;6.930;2023-11-19T09:41:12;12.70;99.90
19945;DHT22;10134;50.952;6.930;2023-11-19T09:43:41;12.70;99.90
19945;DHT22;10134;50.952;6.930;2023-11-19T09:46:10;12.80;99.90
19945;DHT22;10134;50.952;6.930;2023-11-19T09:48:40;12.90;99.90
19945;DHT22;10134;50.952;6.930;2023-11-19T09:51:10;12.90;99.90
19945;DHT22;10134;50.952;6.930;2023-11-19T09:53:39;13.00;99.90
19945;DHT22;10134;50.952;6.930;2023-11-19T09:56:08;13.10;99.90
19945;DHT22;10134;50.952;6.930;2023-11-19T09:58:41;13.10;99.90
19945;DHT22;10134;50.952;6.930;2023-11-19T10:01:10;13.20;99.90
19945;DHT22;10134;50.952;6.930;2023-11-19T10:03:48;13.20;99.90
19945;DHT22;10134;50.952;6.930;2023-11-19T10:06:28;13.20;99.90
19945;DHT22;10134;50.952;6.930;2023-11-19T10:08:58;13.20;99.90
19945;DHT22;10134;50.952;6.930;2023-11-19T10:11:35;13.20;99.90
19945;DHT22;10134;50.952;6.930;2023-11-19T10:14:10;13.20;99.90
19945;DHT22;10134;50.952;6.930;2023-11-19T10:16:41;13.20;99.90
19945;DHT22;10134;50.952;6.930;2023-11-19T10:19:18;13.20;99.90
19945;DHT22;10134;50.952;6.930;2023-11-19T10:21:48;13.20;99.90
19945;DHT22;10134;50.952;6.930;2023-11-19T10:24:31;13.20;99.90
19945;DHT22;10134;50.952;6.930;2023-11-19T10:27:02;13.30;99.90
19945;DHT22;10134;50.952;6.930;2023-11-19T10:29:33;13.30;99.90
19945;DHT22;10134;50.952;6.930;2023-11-19T10:32:04;13.40;99.90
19945;DHT22;10134;50.952;6.930;2023-11-19T10:35:05;13.40;99.90
19945;DHT22;10134;50.952;6.930;2023-11-19T10:37:34;13.50;99.90
19945;DHT22;10134;50.952;6.930;2023-11-19T10:40:06;13.50;99.90
19945;DHT22;10134;50.952;6.930;2023-11-19T10:42:38;13.50;99.90
19945;DHT22;10134;50.952;6.930;2023-11-19T10:45:21;13.60;99.90
19945;DHT22;10134;50.952;6.930;2023-11-19T10:47:51;13.60;99.90
19945;DHT22;10134;50.952;6.930;2023-11-19T10:50:21;13.70;99.90
19945;DHT22;10134;50.952;6.930;2023-11-19T10:52:54;13.70;99.90
19945;DHT22;10134;50.952;6.930;2023-11-19T10:55:27;13.70;99.90
19945;DHT22;10134;50.952;6.930;2023-11-19T10:57:59;13.70;99.90
19945;DHT22;10134;50.952;6.930;2023-11-19T11:00:36;13.70;99.90
19945;DHT22;10134;50.952;6.930;2023-11-19T11:03:10;13.80;99.90
19945;DHT22;10134;50.952;6.930;2023-11-19T11:05:41;13.80;99.90
19945;DHT22;10134;50.952;6.930;2023-11-19T11:08:10;13.80;99.90
19945;DHT22;10134;50.952;6.930;2023-11-19T11:10:42;13.80;99.90
19945;DHT22;10134;50.952;6.930;2023-11-19T11:13:14;13.80;99.90
19945;DHT22;10134;50.952;6.930;2023-11-19T11:15:45;13.80;99.90
19945;DHT22;10134;50.952;6.930;2023-11-19T11:18:15;13.80;99.90
19945;DHT22;10134;50.952;6.930;2023-11-19T11:20:49;13.80;99.90
19945;DHT22;10134;50.952;6.930;2023-11-19T11:23:36;13.80;99.90
19945;DHT22;10134;50.952;6.930;2023-11-19T11:26:20;13.80;99.90
19945;DHT22;10134;50.952;6.930;2023-11-19T11:28:58;13.80;99.90
19945;DHT22;10134;50.952;6.930;2023-11-19T11:31:36;13.70;99.90
19945;DHT22;10134;50.952;6.930;2023-11-19T11:34:41;13.70;99.90
19945;DHT22;10134;50.952;6.930;2023-11-19T11:37:18;13.70;99.90
19945;DHT22;10134;50.952;6.930;2023-11-19T11:39:47;13.70;99.90
19945;DHT22;10134;50.952;6.930;2023-11-19T11:42:34;13.80;99.90
19945;DHT22;10134;50.952;6.930;2023-11-19T11:45:05;13.80;99.90
19945;DHT22;10134;50.952;6.930;2023-11-19T11:50:55;13.80;99.90
19945;DHT22;10134;50.952;6.930;2023-11-19T11:53:25;13.70;99.90
19945;DHT22;10134;50.952;6.930;2023-11-19T11:55:58;13.70;99.90
19945;DHT22;10134;50.952;6.930;2023-11-19T11:58:35;13.70;99.90
19945;DHT22;10134;50.952;6.930;2023-11-19T12:01:05;13.70;99.90
19945;DHT22;10134;50.952;6.930;2023-11-19T12:03:34;13.70;99.90
19945;DHT22;10134;50.952;6.930;2023-11-19T12:06:05;13.70;99.90
19945;DHT22;10134;50.952;6.930;2023-11-19T12:08:35;13.80;99.90
19945;DHT22;10134;50.952;6.930;2023-11-19T12:11:07;13.90;99.90
19945;DHT22;10134;50.952;6.930;2023-11-19T12:13:54;14.00;99.90
19945;DHT22;10134;50.952;6.930;2023-11-19T12:16:26;14.00;99.90
19945;DHT22;10134;50.952;6.930;2023-11-19T12:18:56;14.00;99.90
19945;DHT22;10134;50.952;6.930;2023-11-19T12:21:33;14.10;99.90
19945;DHT22;10134;50.952;6.930;2023-11-19T12:24:06;14.10;99.90
19945;DHT22;10134;50.952;6.930;2023-11-19T12:26:37;14.20;99.90
19945;DHT22;10134;50.952;6.930;2023-11-19T12:29:06;14.20;99.90
19945;DHT22;10134;50.952;6.930;2023-11-19T12:31:36;14.30;99.90
19945;DHT22;10134;50.952;6.930;2023-11-19T12:34:09;14.30;99.90
19945;DHT22;10134;50.952;6.930;2023-11-19T12:36:42;14.30;99.90
19945;DHT22;10134;50.952;6.930;2023-11-19T12:39:11;14.30;99.90
19945;DHT22;10134;50.952;6.930;2023-11-19T12:41:49;14.30;99.90
19945;DHT22;10134;50.952;6.930;2023-11-19T12:44:19;14.30;99.90
19945;DHT22;10134;50.952;6.930;2023-11-19T12:47:02;14.30;99.90
19945;DHT22;10134;50.952;6.930;2023-11-19T12:49:31;14.30;99.90
19945;DHT22;10134;50.952;6.930;2023-11-19T12:52:02;14.30;99.90
19945;DHT22;10134;50.952;6.930;2023-11-19T12:54:34;14.30;99.90
19945;DHT22;10134;50.952;6.930;2023-11-19T12:57:05;14.30;99.90
19945;DHT22;10134;50.952;6.930;2023-11-19T12:59:34;14.30;99.90
19945;DHT22;10134;50.952;6.930;2023-11-19T13:02:03;14.20;99.90
19945;DHT22;10134;50.952;6.930;2023-11-19T13:04:33;14.20;99.90
19945;DHT22;10134;50.952;6.930;2023-11-19T13:07:04;14.20;99.90
19945;DHT22;10134;50.952;6.930;2023-11-19T13:09:33;14.20;99.90
19945;DHT22;10134;50.952;6.930;2023-11-19T13:12:13;14.20;99.90
19945;DHT22;10134;50.952;6.930;2023-11-19T13:18:19;14.20;99.90
19945;DHT22;10134;50.952;6.930;2023-11-19T13:20:48;14.20;99.90
19945;DHT22;10134;50.952;6.930;2023-11-19T13:23:18;14.20;99.90
19945;DHT22;10134;50.952;6.930;2023-11-19T13:25:47;14.20;99.90
19945;DHT22;10134;50.952;6.930;2023-11-19T13:28:16;14.20;99.90
19945;DHT22;10134;50.952;6.930;2023-11-19T13:30:44;14.20;99.90
19945;DHT22;10134;50.952;6.930;2023-11-19T13:33:13;14.10;99.90
19945;DHT22;10134;50.952;6.930;2023-11-19T13:35:42;14.10;99.90
19945;DHT22;10134;50.952;6.930;2023-11-19T13:38:10;14.10;99.90
19945;DHT22;10134;50.952;6.930;2023-11-19T13:40:41;14.10;99.90
19945;DHT22;10134;50.952;6.930;2023-11-19T13:43:09;14.10;99.90
19945;DHT22;10134;50.952;6.930;2023-11-19T13:45:39;14.10;99.90
19945;DHT22;10134;50.952;6.930;2023-11-19T13:48:07;14.10;99.90
19945;DHT22;10134;50.952;6.930;2023-11-19T13:50:36;14.10;99.90
19945;DHT22;10134;50.952;6.930;2023-11-19T13:53:05;14.10;99.90
19945;DHT22;10134;50.952;6.930;2023-11-19T13:55:34;14.10;99.90
19945;DHT22;10134;50.952;6.930;2023-11-19T13:58:04;14.10;99.90
19945;DHT22;10134;50.952;6.930;2023-11-19T14:00:33;14.20;99.90
19945;DHT22;10134;50.952;6.930;2023-11-19T14:03:02;14.20;99.90
19945;DHT22;10134;50.952;6.930;2023-11-19T14:05:31;14.20;99.90
19945;DHT22;10134;50.952;6.930;2023-11-19T14:08:03;14.30;99.90
19945;DHT22;10134;50.952;6.930;2023-11-19T14:10:55;14.30;99.90
19945;DHT22;10134;50.952;6.930;2023-11-19T14:13:25;14.30;99.90
19945;DHT22;10134;50.952;6.930;2023-11-19T14:15:54;14.30;99.90
19945;DHT22;10134;50.952;6.930;2023-11-19T14:18:23;14.30;99.90
19945;DHT22;10134;50.952;6.930;2023-11-19T14:20:52;14.20;99.90
19945;DHT22;10134;50.952;6.930;2023-11-19T14:23:21;14.20;99.90
19945;DHT22;10134;50.952;6.930;2023-11-19T14:25:49;14.20;99.90
19945;DHT22;10134;50.952;6.930;2023-11-19T14:28:18;14.20;99.90
19945;DHT22;10134;50.952;6.930;2023-11-19T14:30:49;14.10;99.90
19945;DHT22;10134;50.952;6.930;2023-11-19T14:33:24;14.10;99.90
19945;DHT22;10134;50.952;6.930;2023-11-19T14:35:54;14.10;99.90
19945;DHT22;10134;50.952;6.930;2023-11-19T14:38:23;14.00;99.90
19945;DHT22;10134;50.952;6.930;2023-11-19T14:40:51;14.00;99.90
19945;DHT22;10134;50.952;6.930;2023-11-19T14:43:20;14.00;99.90
19945;DHT22;10134;50.952;6.930;2023-11-19T14:45:50;14.00;99.90
19945;DHT22;10134;50.952;6.930;2023-11-19T14:48:21;13.90;99.90
19945;DHT22;10134;50.952;6.930;2023-11-19T14:50:49;13.90;99.90
19945;DHT22;10134;50.952;6.930;2023-11-19T14:53:19;13.90;99.90
19945;DHT22;10134;50.952;6.930;2023-11-19T14:55:47;13.90;99.90
19945;DHT22;10134;50.952;6.930;2023-11-19T14:58:16;13.90;99.90
19945;DHT22;10134;50.952;6.930;2023-11-19T15:00:44;13.90;99.90
19945;DHT22;10134;50.952;6.930;2023-11-19T15:03:15;13.90;99.90
19945;DHT22;10134;50.952;6.930;2023-11-19T15:05:46;13.80;99.90
19945;DHT22;10134;50.952;6.930;2023-11-19T15:08:15;13.80;99.90
19945;DHT22;10134;50.952;6.930;2023-11-19T15:10:44;13.80;99.90
19945;DHT22;10134;50.952;6.930;2023-11-19T15:13:14;13.70;99.90
19945;DHT22;10134;50.952;6.930;2023-11-19T15:15:42;13.70;99.90
19945;DHT22;10134;50.952;6.930;2023-11-19T15:18:15;13.70;99.90
19945;DHT22;10134;50.952;6.930;2023-11-19T15:20:46;13.70;99.90
19945;DHT22;10134;50.952;6.930;2023-11-19T15:23:15;13.70;99.90
19945;DHT22;10134;50.952;6.930;2023-11-19T15:25:44;13.60;99.90
19945;DHT22;10134;50.952;6.930;2023-11-19T15:28:13;13.60;99.90
19945;DHT22;10134;50.952;6.930;2023-11-19T15:30:42;13.60;99.90
19945;DHT22;10134;50.952;6.930;2023-11-19T15:33:11;13.60;99.90
19945;DHT22;10134;50.952;6.930;2023-11-19T15:35:41;13.60;99.90
19945;DHT22;10134;50.952;6.930;2023-11-19T15:38:10;13.50;99.90
19945;DHT22;10134;50.952;6.930;2023-11-19T15:40:38;13.50;99.90
19945;DHT22;10134;50.952;6.930;2023-11-19T15:43:07;13.50;99.90
19945;DHT22;10134;50.952;6.930;2023-11-19T15:45:36;13.50;99.90
19945;DHT22;10134;50.952;6.930;2023-11-19T15:48:06;13.50;99.90
19945;DHT22;10134;50.952;6.930;2023-11-19T15:50:34;13.40;99.90
19945;DHT22;10134;50.952;6.930;2023-11-19T15:53:05;13.40;99.90
19945;DHT22;10134;50.952;6.930;2023-11-19T15:55:33;13.30;99.90
19945;DHT22;10134;50.952;6.930;2023-11-19T15:58:03;13.30;99.90